createdAt,value
2022-10-18T00:00:09.578Z,102596.91
2022-10-18T00:02:38.323Z,102590.78
2022-10-18T00:05:05.800Z,102592.72
2022-10-18T00:07:33.273Z,102587.63
2022-10-18T00:10:00.631Z,102592.28
2022-10-18T00:12:27.879Z,102588.75
2022-10-18T00:14:55.038Z,102579.00
2022-10-18T00:17:22.202Z,102584.44
2022-10-18T00:19:50.336Z,102578.31
2022-10-18T00:22:17.460Z,102586.97
2022-10-18T00:24:44.630Z,102584.00
2022-10-18T00:27:11.807Z,102584.31
2022-10-18T00:29:39.019Z,102574.69
2022-10-18T00:32:06.198Z,102576.44
2022-10-18T00:34:33.334Z,102570.28
2022-10-18T00:37:00.481Z,102564.34
2022-10-18T00:39:27.663Z,102561.84
2022-10-18T00:41:55.013Z,102569.09
2022-10-18T00:44:24.911Z,102562.09
2022-10-18T00:46:55.721Z,102560.44
2022-10-18T00:49:31.125Z,102558.72
2022-10-18T00:52:03.842Z,102559.00
2022-10-18T00:54:34.554Z,102565.19
2022-10-18T00:57:02.631Z,102568.69
2022-10-18T00:59:30.165Z,102561.59
2022-10-18T01:01:57.456Z,102556.31
2022-10-18T01:04:25.248Z,102551.16
2022-10-18T01:07:28.916Z,102555.41
2022-10-18T01:10:13.996Z,102545.91
2022-10-18T01:13:10.190Z,102548.69
2022-10-18T01:16:01.278Z,102545.38
2022-10-18T01:18:36.222Z,102545.44
2022-10-18T01:21:08.866Z,102543.78
2022-10-18T01:23:57.547Z,102535.94
2022-10-18T01:26:44.262Z,102532.34
2022-10-18T01:29:42.348Z,102541.38
2022-10-18T01:32:18.856Z,102536.25
2022-10-18T01:34:48.817Z,102528.28
2022-10-18T01:37:17.790Z,102529.03
2022-10-18T01:39:47.866Z,102529.91
2022-10-18T01:42:19.556Z,102525.56
2022-10-18T01:44:48.324Z,102521.25
2022-10-18T01:47:16.737Z,102522.13
2022-10-18T01:49:43.870Z,102530.16
2022-10-18T01:52:15.805Z,102525.72
2022-10-18T01:54:46.136Z,102527.56
2022-10-18T01:57:51.894Z,102527.81
2022-10-18T02:00:35.078Z,102525.22
2022-10-18T02:03:10.857Z,102527.16
2022-10-18T02:05:46.602Z,102523.78
2022-10-18T02:08:32.122Z,102529.97
2022-10-18T02:11:04.734Z,102517.66
2022-10-18T02:13:38.771Z,102523.84
2022-10-18T02:16:12.035Z,102517.84
2022-10-18T02:18:43.923Z,102517.84
2022-10-18T02:21:14.151Z,102518.84
2022-10-18T02:23:43.994Z,102528.41
2022-10-18T02:26:11.476Z,102520.50
2022-10-18T02:28:39.482Z,102516.41
2022-10-18T02:31:20.334Z,102520.34
2022-10-18T02:33:55.684Z,102516.03
2022-10-18T02:36:28.788Z,102512.53
2022-10-18T02:39:02.112Z,102513.44
2022-10-18T02:41:30.875Z,102524.06
2022-10-18T02:43:58.008Z,102522.59
2022-10-18T02:48:57.242Z,102518.75
2022-10-18T02:51:25.158Z,102516.97
2022-10-18T02:53:52.368Z,102519.75
2022-10-18T02:56:19.490Z,102517.28
2022-10-18T02:58:46.594Z,102513.06
2022-10-18T03:01:13.866Z,102524.53
2022-10-18T03:03:41.114Z,102521.13
2022-10-18T03:06:08.272Z,102517.69
2022-10-18T03:08:36.461Z,102517.63
2022-10-18T03:11:03.586Z,102506.19
2022-10-18T03:16:02.703Z,102506.66
2022-10-18T03:18:29.831Z,102505.06
2022-10-18T03:20:56.891Z,102505.34
2022-10-18T03:23:23.973Z,102509.94
2022-10-18T03:25:51.156Z,102508.25
2022-10-18T03:28:18.272Z,102508.50
2022-10-18T03:30:45.452Z,102505.03
2022-10-18T03:33:12.934Z,102512.94
2022-10-18T03:35:40.036Z,102511.25
2022-10-18T03:38:07.268Z,102509.53
2022-10-18T03:40:34.750Z,102508.59
2022-10-18T03:43:01.915Z,102511.16
2022-10-18T03:45:31.290Z,102507.50
2022-10-18T03:47:58.787Z,102507.63
2022-10-18T03:50:25.904Z,102502.25
2022-10-18T03:52:54.475Z,102503.97
2022-10-18T03:55:21.822Z,102496.81
2022-10-18T03:57:50.180Z,102501.28
2022-10-18T04:00:17.565Z,102502.06
2022-10-18T04:02:44.668Z,102503.06
2022-10-18T04:05:12.880Z,102504.91
2022-10-18T04:07:40.185Z,102502.38
2022-10-18T04:10:08.000Z,102502.38
2022-10-18T04:12:35.139Z,102504.19
2022-10-18T04:15:03.065Z,102499.66
2022-10-18T04:17:30.527Z,102504.34
2022-10-18T04:19:57.782Z,102506.41
2022-10-18T04:22:24.915Z,102497.00
2022-10-18T04:24:53.311Z,102496.09
2022-10-18T04:27:20.435Z,102497.91
2022-10-18T04:29:47.526Z,102498.72
2022-10-18T04:32:14.763Z,102497.00
2022-10-18T04:37:13.878Z,102499.28
2022-10-18T04:39:40.968Z,102495.81
2022-10-18T04:42:08.272Z,102492.31
2022-10-18T04:44:35.423Z,102497.75
2022-10-18T04:47:02.681Z,102495.88
2022-10-18T04:49:29.810Z,102491.44
2022-10-18T04:51:56.874Z,102489.72
2022-10-18T04:54:26.514Z,102493.97
2022-10-18T04:56:55.787Z,102478.91
2022-10-18T04:59:22.887Z,102478.06
2022-10-18T05:01:50.074Z,102480.84
2022-10-18T05:04:17.222Z,102487.91
2022-10-18T05:06:44.283Z,102479.97
2022-10-18T05:09:11.382Z,102482.44
2022-10-18T05:11:38.599Z,102485.09
2022-10-18T05:14:05.738Z,102479.72
2022-10-18T05:16:33.096Z,102482.44
2022-10-18T05:19:00.206Z,102478.81
2022-10-18T05:21:27.381Z,102475.25
2022-10-18T05:23:58.035Z,102484.84
2022-10-18T05:26:25.143Z,102485.84
2022-10-18T05:28:52.247Z,102477.81
2022-10-18T05:31:19.366Z,102481.44
2022-10-18T05:33:46.605Z,102486.47
2022-10-18T05:36:13.851Z,102488.13
2022-10-18T05:38:45.373Z,102482.97
2022-10-18T05:41:12.826Z,102486.53
2022-10-18T05:43:40.746Z,102487.31
2022-10-18T05:46:13.549Z,102486.28
2022-10-18T05:48:43.999Z,102487.63
2022-10-18T05:51:11.288Z,102480.44
2022-10-18T05:53:38.551Z,102483.81
2022-10-18T05:56:07.203Z,102485.50
2022-10-18T05:58:34.932Z,102484.34
2022-10-18T06:01:03.682Z,102486.56
2022-10-18T06:03:31.082Z,102490.84
2022-10-18T06:06:06.105Z,102492.44
2022-10-18T06:08:34.378Z,102493.00
2022-10-18T06:11:06.948Z,102501.50
2022-10-18T06:13:34.298Z,102495.16
2022-10-18T06:16:01.466Z,102499.31
2022-10-18T06:18:29.724Z,102497.31
2022-10-18T06:20:58.266Z,102491.75
2022-10-18T06:23:29.110Z,102496.81
2022-10-18T06:26:01.000Z,102496.28
2022-10-18T06:28:29.769Z,102496.78
2022-10-18T06:30:57.917Z,102490.00
2022-10-18T06:33:25.656Z,102492.31
2022-10-18T06:36:01.322Z,102491.88
2022-10-18T06:38:29.818Z,102497.72
2022-10-18T06:40:58.022Z,102499.00
2022-10-18T06:43:25.580Z,102505.53
2022-10-18T06:45:53.325Z,102509.41
2022-10-18T06:48:21.369Z,102501.69
2022-10-18T06:50:59.115Z,102501.25
2022-10-18T06:53:28.086Z,102515.25
2022-10-18T06:56:10.339Z,102521.66
2022-10-18T06:58:37.943Z,102514.94
2022-10-18T07:01:23.047Z,102519.66
2022-10-18T07:03:53.223Z,102514.94
2022-10-18T07:06:21.073Z,102514.19
2022-10-18T07:08:49.345Z,102520.16
2022-10-18T07:11:19.472Z,102516.69
2022-10-18T07:13:46.757Z,102520.50
2022-10-18T07:16:18.324Z,102520.94
2022-10-18T07:18:52.149Z,102530.25
2022-10-18T07:21:22.690Z,102527.72
2022-10-18T07:23:50.815Z,102522.75
2022-10-18T07:26:32.039Z,102526.28
2022-10-18T07:29:05.475Z,102524.69
2022-10-18T07:31:33.366Z,102526.75
2022-10-18T07:34:00.646Z,102528.50
2022-10-18T07:36:27.761Z,102534.94
2022-10-18T07:38:54.967Z,102528.03
2022-10-18T07:41:22.749Z,102530.91
2022-10-18T07:43:51.789Z,102523.81
2022-10-18T07:46:21.210Z,102521.06
2022-10-18T07:48:49.125Z,102525.50
2022-10-18T07:51:17.148Z,102516.44
2022-10-18T07:53:44.263Z,102513.88
2022-10-18T07:56:17.049Z,102516.75
2022-10-18T07:58:45.334Z,102519.38
2022-10-18T08:01:13.511Z,102516.78
2022-10-18T08:03:41.967Z,102513.63
2022-10-18T08:06:11.008Z,102527.19
2022-10-18T08:08:40.354Z,102527.25
2022-10-18T08:11:27.701Z,102523.34
2022-10-18T08:13:55.067Z,102518.69
2022-10-18T08:16:24.748Z,102524.19
2022-10-18T08:18:52.529Z,102521.63
2022-10-18T08:21:21.083Z,102520.47
2022-10-18T08:23:49.154Z,102516.00
2022-10-18T08:26:18.558Z,102518.75
2022-10-18T08:28:54.108Z,102517.41
2022-10-18T08:31:26.569Z,102514.94
2022-10-18T08:33:57.179Z,102520.94
2022-10-18T08:36:24.867Z,102514.50
2022-10-18T08:38:52.320Z,102515.94
2022-10-18T08:41:36.635Z,102519.03
2022-10-18T08:44:33.021Z,102515.50
2022-10-18T08:47:07.002Z,102502.94
2022-10-18T08:49:36.875Z,102515.00
2022-10-18T08:52:12.322Z,102507.66
2022-10-18T08:55:00.050Z,102504.41
2022-10-18T08:57:27.326Z,102508.63
2022-10-18T08:59:54.517Z,102506.22
2022-10-18T09:02:49.634Z,102508.53
2022-10-18T09:05:27.653Z,102511.00
2022-10-18T09:08:38.978Z,102506.88
2022-10-18T09:11:33.350Z,102504.66
2022-10-18T09:14:17.626Z,102504.19
2022-10-18T09:16:53.234Z,102495.75
2022-10-18T09:19:29.390Z,102494.94
2022-10-18T09:22:11.912Z,102496.69
2022-10-18T09:24:39.947Z,102482.53
2022-10-18T09:27:18.228Z,102484.03
2022-10-18T09:29:48.224Z,102486.88
2022-10-18T09:32:27.349Z,102478.94
2022-10-18T09:35:15.732Z,102477.13
2022-10-18T09:37:44.418Z,102483.00
2022-10-18T09:40:18.983Z,102475.13
2022-10-18T09:42:58.331Z,102474.78
2022-10-18T09:45:32.634Z,102475.75
2022-10-18T09:48:03.095Z,102471.59
2022-10-18T09:50:42.412Z,102476.13
2022-10-18T09:53:38.147Z,102465.97
2022-10-18T09:56:09.411Z,102470.25
2022-10-18T09:58:47.697Z,102464.38
2022-10-18T10:01:19.781Z,102468.22
2022-10-18T10:03:46.932Z,102455.69
2022-10-18T10:06:16.623Z,102455.56
2022-10-18T10:08:48.891Z,102456.34
2022-10-18T10:11:36.147Z,102456.03
2022-10-18T10:16:54.846Z,102447.88
2022-10-18T10:19:55.620Z,102448.28
2022-10-18T10:22:35.769Z,102450.25
2022-10-18T10:25:04.063Z,102449.00
2022-10-18T10:27:43.547Z,102446.38
2022-10-18T10:30:37.408Z,102439.84
2022-10-18T10:33:05.250Z,102432.34
2022-10-18T10:38:29.355Z,102430.94
2022-10-18T10:40:57.734Z,102423.47
2022-10-18T10:43:44.056Z,102430.91
2022-10-18T10:46:18.828Z,102417.41
2022-10-18T10:48:49.689Z,102414.41
2022-10-18T10:51:28.796Z,102420.09
2022-10-18T10:54:24.413Z,102415.06
2022-10-18T10:57:05.025Z,102406.44
2022-10-18T11:02:14.212Z,102389.88
2022-10-18T11:04:42.837Z,102386.16
2022-10-18T11:07:09.892Z,102380.31
2022-10-18T11:09:45.765Z,102385.72
2022-10-18T11:12:28.549Z,102372.50
2022-10-18T11:15:13.875Z,102373.06
2022-10-18T11:18:04.684Z,102363.25
2022-10-18T11:21:13.086Z,102363.53
2022-10-18T11:23:42.855Z,102358.84
2022-10-18T11:26:12.768Z,102348.19
2022-10-18T11:28:54.413Z,102343.06
2022-10-18T11:31:47.317Z,102339.47
2022-10-18T11:34:47.387Z,102329.31
2022-10-18T11:37:42.214Z,102324.72
2022-10-18T11:40:32.416Z,102314.53
2022-10-18T11:43:16.475Z,102314.81
2022-10-18T11:46:12.719Z,102310.38
2022-10-18T11:49:14.052Z,102299.38
2022-10-18T11:52:07.728Z,102300.41
2022-10-18T11:54:56.873Z,102299.72
2022-10-18T11:58:03.792Z,102292.38
2022-10-18T12:00:33.573Z,102283.84
2022-10-18T12:03:07.423Z,102287.19
2022-10-18T12:05:37.996Z,102279.72
2022-10-18T12:08:23.098Z,102272.50
2022-10-18T12:11:08.949Z,102269.47
2022-10-18T12:13:46.318Z,102257.19
2022-10-18T12:16:14.362Z,102254.34
2022-10-18T12:19:04.430Z,102246.06
2022-10-18T12:21:34.177Z,102241.88
2022-10-18T12:24:11.035Z,102240.69
2022-10-18T12:26:38.526Z,102235.59
2022-10-18T12:29:08.341Z,102231.81
2022-10-18T12:31:59.007Z,102226.03
2022-10-18T12:34:32.027Z,102221.09
2022-10-18T12:37:11.181Z,102223.03
2022-10-18T12:40:09.448Z,102209.19
2022-10-18T12:42:42.764Z,102201.78
2022-10-18T12:45:32.217Z,102198.81
2022-10-18T12:48:01.987Z,102199.63
2022-10-18T12:50:42.051Z,102194.69
2022-10-18T12:53:12.281Z,102194.56
2022-10-18T12:55:44.607Z,102192.50
2022-10-18T12:58:14.767Z,102180.00
2022-10-18T13:00:41.839Z,102183.63
2022-10-18T13:03:17.973Z,102184.47
2022-10-18T13:05:53.500Z,102172.88
2022-10-18T13:08:27.904Z,102178.78
2022-10-18T13:11:10.174Z,102171.94
2022-10-18T13:13:52.360Z,102168.06
2022-10-18T13:16:46.746Z,102162.53
2022-10-18T13:19:32.687Z,102160.94
2022-10-18T13:21:59.727Z,102155.16
2022-10-18T13:24:32.070Z,102162.81
2022-10-18T13:27:35.832Z,102162.78
2022-10-18T13:30:21.869Z,102155.66
2022-10-18T13:33:16.691Z,102160.91
2022-10-18T13:36:07.055Z,102150.78
2022-10-18T13:38:55.676Z,102146.63
2022-10-18T13:41:34.392Z,102141.13
2022-10-18T13:44:37.739Z,102144.59
2022-10-18T13:47:05.488Z,102136.78
2022-10-18T13:49:48.883Z,102135.63
2022-10-18T13:52:47.047Z,102127.47
2022-10-18T13:55:29.306Z,102128.84
2022-10-18T13:58:17.298Z,102126.56
2022-10-18T14:00:52.462Z,102133.00
2022-10-18T14:03:56.985Z,102128.06
2022-10-18T14:06:32.640Z,102122.31
2022-10-18T14:09:25.707Z,102124.06
2022-10-18T14:12:14.704Z,102120.69
2022-10-18T14:14:54.927Z,102124.22
2022-10-18T14:17:50.012Z,102125.38
2022-10-18T14:20:20.924Z,102127.19
2022-10-18T14:22:53.558Z,102119.88
2022-10-18T14:25:41.299Z,102113.75
2022-10-18T14:28:15.618Z,102120.06
2022-10-18T14:31:07.305Z,102115.00
2022-10-18T14:33:34.394Z,102120.94
2022-10-18T14:36:08.153Z,102115.41
2022-10-18T14:38:45.742Z,102111.94
2022-10-18T14:41:26.466Z,102100.28
2022-10-18T14:44:16.525Z,102107.16
2022-10-18T14:46:48.726Z,102103.03
2022-10-18T14:49:18.101Z,102109.47
2022-10-18T14:51:48.691Z,102103.06
2022-10-18T14:54:31.956Z,102088.75
2022-10-18T14:57:01.133Z,102100.09
2022-10-18T14:59:32.462Z,102093.06
2022-10-18T15:02:05.006Z,102084.03
2022-10-18T15:04:33.179Z,102083.22
2022-10-18T15:07:02.010Z,102075.69
2022-10-18T15:09:30.536Z,102087.72
2022-10-18T15:11:58.375Z,102081.38
2022-10-18T15:14:27.523Z,102087.97
2022-10-18T15:17:00.541Z,102087.75
2022-10-18T15:19:31.222Z,102086.06
2022-10-18T15:22:31.219Z,102085.81
2022-10-18T15:25:18.260Z,102082.03
2022-10-18T15:27:48.544Z,102078.50
2022-10-18T15:30:18.701Z,102080.06
2022-10-18T15:32:55.989Z,102076.56
2022-10-18T15:35:32.294Z,102068.72
2022-10-18T15:38:04.844Z,102074.75
2022-10-18T15:40:36.033Z,102080.56
2022-10-18T15:43:06.162Z,102076.28
2022-10-18T15:45:37.531Z,102077.44
2022-10-18T15:48:10.632Z,102072.28
2022-10-18T15:50:39.668Z,102061.50
2022-10-18T15:53:25.207Z,102063.19
2022-10-18T15:56:01.191Z,102073.69
2022-10-18T15:58:36.210Z,102062.88
2022-10-18T16:01:04.440Z,102067.53
2022-10-18T16:03:35.740Z,102062.94
2022-10-18T16:06:07.532Z,102065.59
2022-10-18T16:08:40.945Z,102065.69
2022-10-18T16:11:14.814Z,102070.34
2022-10-18T16:13:43.983Z,102069.56
2022-10-18T16:16:17.880Z,102072.34
2022-10-18T16:18:45.294Z,102065.44
2022-10-18T16:21:20.526Z,102066.09
2022-10-18T16:23:49.049Z,102072.25
2022-10-18T16:26:17.693Z,102058.72
2022-10-18T16:28:45.907Z,102065.16
2022-10-18T16:31:24.725Z,102066.22
2022-10-18T16:33:54.792Z,102066.81
2022-10-18T16:36:33.458Z,102071.28
2022-10-18T16:39:03.806Z,102067.50
2022-10-18T16:41:30.909Z,102072.69
2022-10-18T16:43:58.002Z,102074.75
2022-10-18T16:46:28.774Z,102085.19
2022-10-18T16:48:56.890Z,102077.59
2022-10-18T16:51:24.264Z,102081.63
2022-10-18T16:53:53.331Z,102078.47
2022-10-18T16:56:32.124Z,102088.25
2022-10-18T16:59:00.383Z,102095.69
2022-10-18T17:01:27.982Z,102096.19
2022-10-18T17:03:55.314Z,102098.63
2022-10-18T17:06:26.861Z,102097.28
2022-10-18T17:08:55.318Z,102096.66
2022-10-18T17:11:24.513Z,102100.44
2022-10-18T17:13:51.617Z,102104.22
2022-10-18T17:18:57.716Z,102107.28
2022-10-18T17:21:26.362Z,102101.44
2022-10-18T17:23:53.546Z,102088.47
2022-10-18T17:26:28.930Z,102095.25
2022-10-18T17:29:02.930Z,102098.28
2022-10-18T17:31:30.720Z,102090.72
2022-10-18T17:33:59.735Z,102092.25
2022-10-18T17:36:27.136Z,102095.66
2022-10-18T17:38:54.782Z,102103.47
2022-10-18T17:41:22.312Z,102095.38
2022-10-18T17:43:49.822Z,102097.38
2022-10-18T17:46:17.952Z,102099.75
2022-10-18T17:48:45.581Z,102100.00
2022-10-18T17:51:15.135Z,102107.28
2022-10-18T17:53:42.355Z,102108.25
2022-10-18T17:56:10.531Z,102100.56
2022-10-18T17:58:37.753Z,102108.94
2022-10-18T18:01:19.423Z,102109.25
2022-10-18T18:03:49.677Z,102109.47
2022-10-18T18:06:23.713Z,102110.56
2022-10-18T18:08:50.884Z,102107.13
2022-10-18T18:11:18.670Z,102114.63
2022-10-18T18:13:45.948Z,102114.00
2022-10-18T18:16:22.026Z,102114.44
2022-10-18T18:18:52.097Z,102113.19
2022-10-18T18:21:20.283Z,102115.44
2022-10-18T18:23:48.527Z,102106.22
2022-10-18T18:26:17.606Z,102106.78
2022-10-18T18:28:44.922Z,102107.03
2022-10-18T18:31:16.396Z,102119.66
2022-10-18T18:33:43.827Z,102117.41
2022-10-18T18:36:11.691Z,102113.22
2022-10-18T18:38:42.527Z,102101.88
2022-10-18T18:41:18.586Z,102110.97
2022-10-18T18:43:51.170Z,102107.66
2022-10-18T18:46:18.416Z,102106.38
2022-10-18T18:48:45.619Z,102110.66
2022-10-18T18:51:15.779Z,102106.47
2022-10-18T18:53:44.243Z,102104.06
2022-10-18T18:56:14.582Z,102099.59
2022-10-18T18:58:43.987Z,102094.41
2022-10-18T19:01:14.878Z,102097.41
2022-10-18T19:03:42.947Z,102102.00
2022-10-18T19:06:15.859Z,102096.00
2022-10-18T19:08:44.839Z,102102.59
2022-10-18T19:11:17.970Z,102103.91
2022-10-18T19:13:45.606Z,102109.09
2022-10-18T19:16:27.797Z,102109.13
2022-10-18T19:19:06.832Z,102107.88
2022-10-18T19:21:44.243Z,102102.72
2022-10-18T19:24:11.779Z,102104.66
2022-10-18T19:26:50.302Z,102104.28
2022-10-18T19:29:22.596Z,102106.69
2022-10-18T19:31:54.825Z,102112.03
2022-10-18T19:34:23.735Z,102112.38
2022-10-18T19:36:51.793Z,102117.81
2022-10-18T19:39:22.030Z,102118.75
2022-10-18T19:41:51.730Z,102123.44
2022-10-18T19:44:19.741Z,102119.50
2022-10-18T19:46:48.219Z,102121.50
2022-10-18T19:49:16.388Z,102119.91
2022-10-18T19:51:43.668Z,102117.81
2022-10-18T19:54:11.950Z,102112.97
2022-10-18T19:56:41.058Z,102115.53
2022-10-18T19:59:09.036Z,102126.50
2022-10-18T20:01:36.960Z,102119.25
2022-10-18T20:04:04.751Z,102123.53
2022-10-18T20:06:32.171Z,102115.53
2022-10-18T20:08:59.482Z,102110.84
2022-10-18T20:11:28.411Z,102111.59
2022-10-18T20:13:55.997Z,102117.81
2022-10-18T20:16:28.888Z,102115.22
2022-10-18T20:19:01.393Z,102128.00
2022-10-18T20:21:30.099Z,102123.81
2022-10-18T20:23:57.495Z,102126.97
2022-10-18T20:26:25.454Z,102136.13
2022-10-18T20:28:57.122Z,102121.34
2022-10-18T20:31:26.464Z,102125.84
2022-10-18T20:34:04.975Z,102120.66
2022-10-18T20:36:32.921Z,102124.22
2022-10-18T20:39:00.731Z,102120.66
2022-10-18T20:41:34.011Z,102112.66
2022-10-18T20:44:03.966Z,102112.88
2022-10-18T20:46:33.694Z,102128.03
2022-10-18T20:49:01.042Z,102120.97
2022-10-18T20:51:28.564Z,102123.63
2022-10-18T20:53:55.783Z,102125.25
2022-10-18T20:56:26.539Z,102119.53
2022-10-18T20:58:56.498Z,102119.91
2022-10-18T21:01:26.394Z,102118.28
2022-10-18T21:03:55.932Z,102115.59
2022-10-18T21:06:34.668Z,102119.72
2022-10-18T21:09:05.659Z,102122.50
2022-10-18T21:11:36.713Z,102125.34
2022-10-18T21:14:05.067Z,102129.16
2022-10-18T21:16:34.955Z,102124.84
2022-10-18T21:19:07.442Z,102122.44
2022-10-18T21:21:35.200Z,102121.59
2022-10-18T21:24:05.532Z,102125.31
2022-10-18T21:26:35.695Z,102127.41
2022-10-18T21:29:04.299Z,102125.28
2022-10-18T21:31:37.188Z,102108.78
2022-10-18T21:34:07.390Z,102109.56
2022-10-18T21:36:36.737Z,102100.88
2022-10-18T21:39:06.344Z,102098.22
2022-10-18T21:41:34.266Z,102108.09
2022-10-18T21:44:04.505Z,102099.63
2022-10-18T21:46:34.697Z,102103.75
2022-10-18T21:49:01.798Z,102100.19
2022-10-18T21:51:29.274Z,102096.09
2022-10-18T21:53:58.148Z,102096.56
2022-10-18T21:56:27.741Z,102095.31
2022-10-18T21:58:55.726Z,102096.78
2022-10-18T22:01:26.195Z,102088.84
2022-10-18T22:03:55.686Z,102094.66
2022-10-18T22:06:23.995Z,102091.59
2022-10-18T22:08:54.167Z,102090.03
2022-10-18T22:11:25.724Z,102083.75
2022-10-18T22:13:53.154Z,102079.75
2022-10-18T22:16:20.819Z,102086.19
2022-10-18T22:18:49.066Z,102090.56
2022-10-18T22:21:18.158Z,102084.53
2022-10-18T22:23:47.556Z,102080.44
2022-10-18T22:26:20.442Z,102073.38
2022-10-18T22:28:53.125Z,102070.03
2022-10-18T22:31:23.067Z,102078.22
2022-10-18T22:33:58.911Z,102073.75
2022-10-18T22:36:26.679Z,102070.97
2022-10-18T22:38:54.046Z,102069.25
2022-10-18T22:41:21.613Z,102067.38
2022-10-18T22:43:50.319Z,102063.88
2022-10-18T22:46:17.863Z,102067.28
2022-10-18T22:48:45.408Z,102068.22
2022-10-18T22:51:12.966Z,102071.75
2022-10-18T22:53:40.945Z,102069.34
2022-10-18T22:56:11.811Z,102059.81
2022-10-18T22:58:38.894Z,102066.78
2022-10-18T23:01:10.142Z,102063.34
2022-10-18T23:03:38.203Z,102068.75
2022-10-18T23:06:17.062Z,102059.03
2022-10-18T23:08:44.139Z,102064.47
2022-10-18T23:11:11.287Z,102060.00
2022-10-18T23:13:39.625Z,102062.94
2022-10-18T23:16:07.258Z,102060.34
2022-10-18T23:18:34.749Z,102056.13
2022-10-18T23:21:09.229Z,102059.81
2022-10-18T23:23:38.333Z,102046.59
2022-10-18T23:26:08.187Z,102045.91
2022-10-18T23:28:37.292Z,102043.44
2022-10-18T23:31:09.821Z,102052.44
2022-10-18T23:33:37.476Z,102060.78
2022-10-18T23:36:05.734Z,102046.59
2022-10-18T23:38:34.056Z,102050.72
2022-10-18T23:41:01.177Z,102052.44
2022-10-18T23:43:28.350Z,102051.84
2022-10-18T23:45:55.512Z,102065.16
2022-10-18T23:48:22.594Z,102058.09
2022-10-18T23:50:49.946Z,102058.38
2022-10-18T23:53:19.476Z,102050.53
2022-10-18T23:55:53.893Z,102050.63
2022-10-18T23:58:21.412Z,102063.00
